Time;durP1;ratioP1;P1;durP2;ratioP2;P2;SDS_P1;SDS_P2;PMS_P1;PMS_P2;Temp;Humidity;BMP_temperature;BMP_pressure;BME280_temperature;BME280_humidity;BME280_pressure;Samples;Min_cycle;Max_cycle;Signal;HPM_P1;HPM_P2
2024/01/30 00:01:29;;;;;;;18.77;10.52;;;9.50;99.90;;;;;;5031448;28;22240;-77
2024/01/30 00:03:55;;;;;;;14.07;9.73;;;9.50;99.90;;;;;;5029213;28;20670;-77
2024/01/30 00:06:21;;;;;;;15.40;10.18;;;9.50;99.90;;;;;;5031839;28;20037;-77
2024/01/30 00:08:48;;;;;;;18.27;9.98;;;9.60;99.90;;;;;;5033798;28;20033;-77
2024/01/30 00:11:15;;;;;;;19.00;10.43;;;9.60;99.90;;;;;;5031747;28;20078;-77
2024/01/30 00:13:41;;;;;;;16.48;9.82;;;9.60;99.90;;;;;;5031728;28;20149;-77
2024/01/30 00:16:09;;;;;;;15.07;9.98;;;9.50;99.90;;;;;;5026561;28;20033;-76
2024/01/30 00:18:35;;;;;;;15.73;9.88;;;9.50;99.90;;;;;;5029391;28;20030;-77
2024/01/30 00:21:01;;;;;;;18.00;10.18;;;9.50;99.90;;;;;;5029236;28;20025;-77
2024/01/30 00:23:27;;;;;;;13.82;10.07;;;9.50;99.90;;;;;;5026551;28;20044;-77
2024/01/30 00:25:53;;;;;;;12.93;9.50;;;9.50;99.90;;;;;;5030134;28;20060;-76
2024/01/30 00:28:18;;;;;;;19.00;10.80;;;9.50;99.90;;;;;;5027076;28;20034;-77
2024/01/30 00:30:44;;;;;;;16.83;9.57;;;9.50;99.90;;;;;;5012311;28;20038;-76
2024/01/30 00:33:10;;;;;;;15.98;10.55;;;9.50;99.90;;;;;;5023428;28;20033;-76
2024/01/30 00:35:35;;;;;;;18.42;10.55;;;9.50;99.90;;;;;;5031249;28;20482;-77
2024/01/30 00:38:01;;;;;;;14.75;10.23;;;9.50;99.90;;;;;;5030549;28;20585;-76
2024/01/30 00:40:27;;;;;;;15.02;9.90;;;9.50;99.90;;;;;;5032437;28;20493;-76
2024/01/30 00:42:53;;;;;;;14.13;10.55;;;9.50;99.90;;;;;;5032442;28;20021;-79
2024/01/30 00:45:18;;;;;;;13.18;10.23;;;9.50;99.90;;;;;;5031771;28;20381;-78
2024/01/30 00:47:44;;;;;;;13.68;10.15;;;9.50;99.90;;;;;;5033291;28;20025;-79
2024/01/30 00:50:10;;;;;;;15.95;11.05;;;9.50;99.90;;;;;;5031127;28;20025;-79
2024/01/30 00:52:36;;;;;;;15.48;10.52;;;9.50;99.90;;;;;;5032447;28;20052;-78
2024/01/30 00:55:02;;;;;;;12.93;9.50;;;9.50;99.90;;;;;;5032158;28;20520;-79
2024/01/30 00:57:28;;;;;;;12.77;9.75;;;9.50;99.90;;;;;;5031094;28;20022;-79
2024/01/30 00:59:54;;;;;;;12.70;9.25;;;9.50;99.90;;;;;;5032997;28;20036;-79
2024/01/30 01:02:20;;;;;;;16.95;10.38;;;9.50;99.90;;;;;;5031537;28;20030;-79
2024/01/30 01:04:46;;;;;;;12.95;9.95;;;9.50;99.90;;;;;;5031764;28;20040;-78
2024/01/30 01:07:12;;;;;;;14.57;10.25;;;9.50;99.90;;;;;;5032520;28;20022;-78
2024/01/30 01:09:37;;;;;;;14.05;9.27;;;9.50;99.90;;;;;;5033083;28;20029;-79
2024/01/30 01:12:04;;;;;;;11.98;9.50;;;9.50;99.90;;;;;;5031046;28;20071;-79
2024/01/30 01:14:30;;;;;;;16.02;9.27;;;9.50;99.90;;;;;;5022779;28;20038;-79
2024/01/30 01:16:56;;;;;;;16.00;10.98;;;9.60;99.90;;;;;;5012304;28;20089;-79
2024/01/30 01:19:22;;;;;;;15.77;9.52;;;9.60;99.90;;;;;;5018215;28;20467;-79
2024/01/30 01:21:48;;;;;;;13.18;8.43;;;9.60;99.90;;;;;;5032516;28;20035;-77
2024/01/30 01:24:13;;;;;;;11.75;8.80;;;9.60;99.90;;;;;;5032418;28;20029;-78
2024/01/30 01:26:39;;;;;;;15.85;9.65;;;9.60;99.90;;;;;;5015781;28;20099;-76
2024/01/30 01:29:11;;;;;;;11.60;8.40;;;9.60;99.90;;;;;;5031538;28;20037;-79
2024/01/30 01:31:43;;;;;;;11.18;8.23;;;9.60;99.90;;;;;;5027642;28;20029;-78
2024/01/30 01:34:12;;;;;;;11.52;8.90;;;9.60;99.90;;;;;;5022669;28;20029;-79
2024/01/30 01:36:39;;;;;;;13.15;8.57;;;9.60;99.90;;;;;;5016468;28;20026;-79
2024/01/30 01:39:05;;;;;;;13.57;7.85;;;9.60;99.90;;;;;;5021729;28;20021;-79
2024/01/30 01:41:34;;;;;;;11.27;8.15;;;9.60;99.90;;;;;;5031630;28;20680;-79
2024/01/30 01:44:00;;;;;;;12.10;8.32;;;9.60;99.90;;;;;;5031827;28;20494;-79
2024/01/30 01:46:29;;;;;;;13.82;8.20;;;9.60;99.90;;;;;;5032406;28;20115;-78
2024/01/30 01:48:56;;;;;;;11.25;7.50;;;9.70;99.90;;;;;;5030440;28;20152;-79
2024/01/30 01:51:24;;;;;;;15.82;9.05;;;9.70;99.90;;;;;;5031913;28;20117;-78
2024/01/30 01:53:50;;;;;;;12.38;8.73;;;9.70;99.90;;;;;;5031085;28;20049;-79
2024/01/30 01:56:16;;;;;;;14.18;10.40;;;9.60;99.90;;;;;;5032355;28;20029;-79
2024/01/30 01:58:46;;;;;;;15.23;8.77;;;9.60;99.90;;;;;;5029865;28;20044;-80
2024/01/30 02:01:13;;;;;;;12.95;8.65;;;9.60;99.90;;;;;;5032104;28;20029;-80
2024/01/30 02:03:40;;;;;;;16.83;8.75;;;9.60;99.90;;;;;;5019488;28;20098;-79
2024/01/30 02:06:06;;;;;;;11.32;9.05;;;9.60;99.90;;;;;;5028664;28;20331;-80
2024/01/30 02:08:33;;;;;;;13.65;9.05;;;9.60;99.90;;;;;;5029333;28;20378;-79
2024/01/30 02:10:59;;;;;;;13.73;8.73;;;9.60;99.90;;;;;;5014490;28;20037;-79
2024/01/30 02:13:25;;;;;;;16.23;9.23;;;9.60;99.90;;;;;;5027346;28;20018;-79
2024/01/30 02:15:54;;;;;;;11.07;8.60;;;9.50;99.90;;;;;;5010962;28;20088;-77
2024/01/30 02:18:21;;;;;;;12.45;8.57;;;9.50;99.90;;;;;;5011086;28;20030;-78
2024/01/30 02:20:47;;;;;;;11.77;8.23;;;9.50;99.90;;;;;;5031000;28;20025;-79
2024/01/30 02:23:16;;;;;;;13.23;8.93;;;9.60;99.90;;;;;;5031827;28;20025;-77
2024/01/30 02:25:46;;;;;;;10.80;8.10;;;9.60;99.90;;;;;;5031947;28;20106;-79
2024/01/30 02:28:12;;;;;;;14.93;9.63;;;9.60;99.90;;;;;;5033239;28;20026;-79
2024/01/30 02:30:44;;;;;;;15.73;9.32;;;9.60;99.90;;;;;;5035790;28;20479;-79
2024/01/30 02:33:10;;;;;;;17.17;10.77;;;9.60;99.90;;;;;;5033582;28;20112;-79
2024/01/30 02:35:36;;;;;;;12.35;9.30;;;9.60;99.90;;;;;;5034889;28;20097;-80
2024/01/30 02:38:02;;;;;;;14.63;9.93;;;9.50;99.90;;;;;;5033587;28;20045;-77
2024/01/30 02:40:27;;;;;;;15.60;8.70;;;9.50;99.90;;;;;;5035428;28;20092;-79
2024/01/30 02:42:53;;;;;;;12.23;8.20;;;9.50;99.90;;;;;;5035668;28;20021;-79
2024/01/30 02:45:19;;;;;;;12.40;8.73;;;9.60;99.90;;;;;;5035580;28;20037;-78
2024/01/30 02:47:46;;;;;;;14.50;9.10;;;9.50;99.90;;;;;;5034621;28;20028;-79
2024/01/30 02:50:11;;;;;;;15.63;9.55;;;9.50;99.90;;;;;;5033429;28;20025;-80
2024/01/30 02:52:37;;;;;;;14.00;8.75;;;9.60;99.90;;;;;;5035491;28;20648;-80
2024/01/30 02:55:03;;;;;;;13.85;8.63;;;9.60;99.90;;;;;;5035543;28;20435;-79
2024/01/30 02:57:29;;;;;;;13.35;9.82;;;9.60;99.90;;;;;;5035544;28;20025;-80
2024/01/30 02:59:55;;;;;;;13.40;8.32;;;9.60;99.90;;;;;;5034752;28;20029;-80
2024/01/30 03:02:21;;;;;;;12.02;8.23;;;9.60;99.90;;;;;;5034660;28;20108;-79
2024/01/30 03:04:46;;;;;;;14.82;8.77;;;9.60;99.90;;;;;;5035223;28;20631;-79
2024/01/30 03:07:12;;;;;;;13.45;9.07;;;9.60;99.90;;;;;;5035709;28;20537;-80
2024/01/30 03:09:38;;;;;;;14.93;8.85;;;9.60;99.90;;;;;;5034686;28;20018;-79
2024/01/30 03:12:05;;;;;;;10.57;7.85;;;9.60;99.90;;;;;;5035221;28;20478;-80
2024/01/30 03:14:31;;;;;;;14.38;9.00;;;9.60;99.90;;;;;;5034640;28;20562;-79
2024/01/30 03:16:57;;;;;;;14.20;8.95;;;9.60;99.90;;;;;;5034127;28;20029;-79
2024/01/30 03:19:23;;;;;;;11.75;8.55;;;9.60;99.90;;;;;;5034243;28;20032;-80
2024/01/30 03:21:49;;;;;;;12.85;8.38;;;9.60;99.90;;;;;;5034268;28;20025;-79
2024/01/30 03:24:15;;;;;;;10.05;8.38;;;9.60;99.90;;;;;;5035162;28;20029;-80
2024/01/30 03:26:41;;;;;;;12.10;9.05;;;9.60;99.90;;;;;;5034566;28;20414;-80
2024/01/30 03:29:07;;;;;;;11.57;8.77;;;9.50;99.90;;;;;;5034897;28;20061;-79
2024/01/30 03:31:33;;;;;;;11.80;7.55;;;9.60;99.90;;;;;;5033941;28;20116;-79
2024/01/30 03:33:59;;;;;;;12.35;8.52;;;9.60;99.90;;;;;;5034715;28;20168;-80
2024/01/30 03:36:24;;;;;;;12.57;7.72;;;9.60;99.90;;;;;;5033726;28;20059;-80
2024/01/30 03:38:50;;;;;;;11.30;7.85;;;9.60;99.90;;;;;;5034343;28;20035;-79
2024/01/30 03:41:16;;;;;;;12.75;8.10;;;9.60;99.90;;;;;;5034624;28;20087;-80
2024/01/30 03:43:41;;;;;;;9.85;8.18;;;9.60;99.90;;;;;;5034652;28;20061;-79
2024/01/30 03:46:07;;;;;;;12.05;8.60;;;9.60;99.90;;;;;;5033926;28;20036;-79
2024/01/30 03:48:33;;;;;;;11.85;8.38;;;9.60;99.90;;;;;;5033276;28;20108;-79
2024/01/30 03:50:58;;;;;;;13.43;8.43;;;9.70;99.90;;;;;;5034392;28;20055;-80
2024/01/30 03:53:24;;;;;;;13.48;8.98;;;9.70;99.90;;;;;;5034611;28;20528;-79
2024/01/30 03:55:50;;;;;;;13.68;8.82;;;9.70;99.90;;;;;;5032270;28;20677;-79
2024/01/30 03:58:16;;;;;;;14.32;8.25;;;9.70;99.90;;;;;;5034097;28;20069;-79
2024/01/30 04:00:41;;;;;;;9.23;7.45;;;9.70;99.90;;;;;;5033306;28;20040;-79
2024/01/30 04:03:07;;;;;;;14.05;7.45;;;9.80;99.90;;;;;;5033847;28;20119;-79
2024/01/30 04:05:33;;;;;;;10.68;7.78;;;9.80;99.90;;;;;;5034011;28;20379;-79
2024/01/30 04:07:59;;;;;;;10.55;8.25;;;9.80;99.90;;;;;;5034369;28;20037;-79
2024/01/30 04:10:25;;;;;;;13.13;7.40;;;9.80;99.90;;;;;;5034057;28;20053;-79
2024/01/30 04:12:51;;;;;;;15.82;8.20;;;9.80;99.90;;;;;;5034497;28;20064;-79
2024/01/30 04:15:18;;;;;;;9.43;7.45;;;9.80;99.90;;;;;;5033609;28;20017;-79
2024/01/30 04:17:44;;;;;;;9.70;7.93;;;9.80;99.90;;;;;;5032287;28;20032;-79
2024/01/30 04:20:18;;;;;;;13.15;8.57;;;9.80;99.90;;;;;;5034011;28;20026;-79
2024/01/30 04:22:45;;;;;;;12.50;8.55;;;9.80;99.90;;;;;;5033477;28;20021;-79
2024/01/30 04:25:11;;;;;;;11.98;7.70;;;9.80;99.90;;;;;;5032666;28;20041;-79
2024/01/30 04:27:37;;;;;;;10.27;6.75;;;9.80;99.90;;;;;;5032257;28;20092;-79
2024/01/30 04:30:03;;;;;;;11.63;7.10;;;9.90;99.90;;;;;;5033161;28;20033;-79
2024/01/30 04:32:29;;;;;;;9.52;7.55;;;9.90;99.90;;;;;;5033477;28;20108;-80
2024/01/30 04:34:55;;;;;;;11.00;7.38;;;10.00;99.90;;;;;;5033718;28;20113;-79
2024/01/30 04:37:21;;;;;;;9.80;7.57;;;10.00;99.90;;;;;;5033257;28;20030;-79
2024/01/30 04:39:46;;;;;;;10.45;7.50;;;10.00;99.90;;;;;;5033872;28;20022;-79
2024/01/30 04:42:12;;;;;;;12.60;7.72;;;10.00;99.90;;;;;;5033514;28;20648;-80
2024/01/30 04:44:38;;;;;;;10.32;7.55;;;10.00;99.90;;;;;;5033406;28;20367;-79
2024/01/30 04:47:05;;;;;;;11.38;7.90;;;10.00;99.90;;;;;;5031894;28;20033;-80
2024/01/30 04:49:32;;;;;;;10.85;6.80;;;10.00;99.90;;;;;;5032822;28;20021;-80
2024/01/30 04:51:58;;;;;;;9.40;6.78;;;10.10;99.90;;;;;;5032538;28;20475;-79
2024/01/30 04:54:24;;;;;;;11.43;7.55;;;10.00;99.90;;;;;;5031292;28;20105;-79
2024/01/30 04:56:50;;;;;;;10.48;7.03;;;10.00;99.90;;;;;;5031863;28;20113;-78
2024/01/30 04:59:15;;;;;;;13.00;6.90;;;10.00;99.90;;;;;;5032055;28;20040;-79
2024/01/30 05:01:41;;;;;;;9.55;7.00;;;10.00;99.90;;;;;;5030258;28;20112;-79
2024/01/30 05:04:11;;;;;;;13.05;7.50;;;10.10;99.90;;;;;;5033342;28;20426;-79
2024/01/30 05:06:37;;;;;;;8.55;6.72;;;10.10;99.90;;;;;;5032641;28;20033;-78
2024/01/30 05:09:05;;;;;;;10.13;6.70;;;10.00;99.90;;;;;;5032683;28;20025;-79
2024/01/30 05:11:31;;;;;;;10.73;7.28;;;10.00;99.90;;;;;;5032080;28;20071;-78
2024/01/30 05:13:56;;;;;;;10.60;7.15;;;10.00;99.90;;;;;;5032954;28;20053;-77
2024/01/30 05:16:22;;;;;;;9.27;6.35;;;10.10;99.90;;;;;;5033124;28;20033;-79
2024/01/30 05:18:48;;;;;;;9.13;7.22;;;10.10;99.90;;;;;;5032437;28;20103;-79
2024/01/30 05:21:14;;;;;;;9.13;6.63;;;10.10;99.90;;;;;;5031598;28;20562;-79
2024/01/30 05:23:41;;;;;;;9.10;6.75;;;10.20;99.90;;;;;;5033278;28;20514;-79
2024/01/30 05:26:08;;;;;;;11.00;7.43;;;10.10;99.90;;;;;;5032816;28;20037;-79
2024/01/30 05:28:33;;;;;;;13.00;7.10;;;10.20;99.90;;;;;;5031783;28;20030;-78
2024/01/30 05:30:59;;;;;;;9.30;6.72;;;10.30;99.90;;;;;;5032534;28;20371;-78
2024/01/30 05:33:25;;;;;;;12.55;6.72;;;10.30;99.90;;;;;;5032634;28;20025;-78
2024/01/30 05:35:54;;;;;;;11.75;6.65;;;10.30;99.90;;;;;;5032967;28;20509;-79
2024/01/30 05:38:19;;;;;;;12.88;6.95;;;10.30;99.90;;;;;;5032579;28;20020;-78
2024/01/30 05:40:45;;;;;;;12.38;7.15;;;10.30;99.90;;;;;;5031519;28;20536;-79
2024/01/30 05:43:11;;;;;;;8.35;6.82;;;10.30;99.90;;;;;;5032277;28;20031;-79
2024/01/30 05:45:37;;;;;;;11.95;7.40;;;10.30;99.90;;;;;;5028015;28;20113;-79
2024/01/30 05:48:04;;;;;;;9.13;6.93;;;10.20;99.90;;;;;;5024730;28;20087;-79
2024/01/30 05:50:30;;;;;;;10.30;6.53;;;10.20;99.90;;;;;;5032585;28;20033;-80
2024/01/30 05:52:55;;;;;;;8.40;7.25;;;10.20;99.90;;;;;;5032761;28;20044;-78
2024/01/30 05:55:21;;;;;;;8.57;6.53;;;10.30;99.90;;;;;;5032116;28;20387;-80
2024/01/30 05:57:47;;;;;;;9.68;6.53;;;10.30;99.90;;;;;;5031198;28;20502;-79
2024/01/30 06:00:13;;;;;;;12.90;6.82;;;10.30;99.90;;;;;;5031491;28;20045;-79
2024/01/30 06:02:39;;;;;;;11.13;6.50;;;10.30;99.90;;;;;;5029958;28;20022;-80
2024/01/30 06:05:05;;;;;;;11.18;7.85;;;10.40;99.90;;;;;;5031353;28;20043;-79
2024/01/30 06:07:31;;;;;;;11.07;7.00;;;10.30;99.90;;;;;;5032558;28;20030;-79
2024/01/30 06:09:57;;;;;;;10.30;7.07;;;10.30;99.90;;;;;;5027829;28;20025;-78
2024/01/30 06:12:22;;;;;;;9.27;7.35;;;10.30;99.90;;;;;;5019055;28;20034;-79
2024/01/30 06:14:48;;;;;;;12.07;7.50;;;10.40;99.90;;;;;;5012713;28;20026;-78
2024/01/30 06:17:14;;;;;;;12.55;7.43;;;10.40;99.90;;;;;;5012581;28;20153;-78
2024/01/30 06:19:39;;;;;;;11.90;7.70;;;10.40;99.90;;;;;;5012417;28;20533;-79
2024/01/30 06:22:06;;;;;;;9.93;7.22;;;10.40;99.90;;;;;;5011886;28;20656;-79
2024/01/30 06:24:31;;;;;;;10.80;6.95;;;10.40;99.90;;;;;;5012513;28;20026;-79
2024/01/30 06:26:57;;;;;;;11.02;6.63;;;10.40;99.90;;;;;;5012253;28;20100;-80
2024/01/30 06:29:24;;;;;;;11.32;7.20;;;10.40;99.90;;;;;;5010878;28;20457;-78
2024/01/30 06:31:50;;;;;;;9.35;7.10;;;10.50;99.90;;;;;;5012360;28;20499;-78
2024/01/30 06:34:16;;;;;;;11.65;7.22;;;10.50;99.90;;;;;;5012394;28;20026;-79
2024/01/30 06:36:42;;;;;;;9.85;6.95;;;10.50;99.90;;;;;;5025324;28;20480;-79
2024/01/30 06:39:07;;;;;;;9.73;7.13;;;10.50;99.90;;;;;;5022047;28;20128;-78
2024/01/30 06:41:33;;;;;;;13.90;6.82;;;10.50;99.90;;;;;;5017070;28;20034;-79
2024/01/30 06:43:59;;;;;;;31.85;28.52;;;10.60;99.90;;;;;;5011811;28;20014;-79
2024/01/30 06:46:25;;;;;;;9.45;6.75;;;10.60;99.90;;;;;;5012591;28;20402;-78
2024/01/30 06:48:50;;;;;;;9.10;7.03;;;10.60;99.90;;;;;;5031720;28;20021;-78
2024/01/30 06:51:16;;;;;;;8.35;6.93;;;10.50;99.90;;;;;;5031225;28;20030;-79
2024/01/30 06:53:42;;;;;;;13.30;6.80;;;10.60;99.90;;;;;;5031198;28;20507;-77
2024/01/30 06:56:08;;;;;;;8.70;6.55;;;10.50;99.90;;;;;;5030298;28;20515;-77
2024/01/30 06:58:33;;;;;;;10.05;6.85;;;10.50;99.90;;;;;;5031578;28;20026;-79
2024/01/30 07:00:59;;;;;;;9.93;6.45;;;10.60;99.90;;;;;;5027089;28;20061;-77
2024/01/30 07:03:25;;;;;;;13.13;6.55;;;10.60;99.90;;;;;;5029219;28;20470;-78
2024/01/30 07:05:51;;;;;;;12.73;6.85;;;10.70;99.90;;;;;;5012982;28;20052;-77
2024/01/30 07:08:17;;;;;;;10.27;6.97;;;10.60;99.90;;;;;;5010300;28;20018;-78
2024/01/30 07:10:43;;;;;;;14.55;7.22;;;10.70;99.90;;;;;;5011462;28;20030;-78
2024/01/30 07:13:10;;;;;;;8.40;6.85;;;10.70;99.90;;;;;;5011360;28;20077;-76
2024/01/30 07:15:36;;;;;;;10.45;6.45;;;10.60;99.90;;;;;;5017234;28;20136;-79
2024/01/30 07:18:04;;;;;;;13.65;6.75;;;10.60;99.90;;;;;;5017521;28;20041;-79
2024/01/30 07:20:31;;;;;;;12.48;7.10;;;10.70;99.90;;;;;;5024442;28;20032;-77
2024/01/30 07:22:58;;;;;;;10.00;7.93;;;10.70;99.90;;;;;;5021438;28;20642;-77
2024/01/30 07:25:26;;;;;;;10.27;7.20;;;10.70;99.90;;;;;;5020344;28;20402;-78
2024/01/30 07:27:55;;;;;;;9.93;7.15;;;10.70;99.90;;;;;;5015106;28;20026;-78
2024/01/30 07:30:21;;;;;;;10.75;7.30;;;10.70;99.90;;;;;;5018373;28;20033;-79
2024/01/30 07:32:47;;;;;;;10.57;6.97;;;10.70;99.90;;;;;;5035419;28;20105;-78
2024/01/30 07:35:13;;;;;;;13.70;8.07;;;10.80;99.90;;;;;;5032787;28;20041;-78
2024/01/30 07:37:40;;;;;;;8.93;7.25;;;10.80;99.90;;;;;;5031507;28;20025;-80
2024/01/30 07:40:06;;;;;;;10.68;8.52;;;10.80;99.90;;;;;;5024047;28;20446;-81
2024/01/30 07:42:33;;;;;;;13.27;7.32;;;10.80;99.90;;;;;;5023517;28;20037;-77
2024/01/30 07:45:00;;;;;;;10.23;7.20;;;10.80;99.90;;;;;;5016466;28;20084;-76
2024/01/30 07:47:25;;;;;;;9.93;7.47;;;10.80;99.90;;;;;;5014442;28;20030;-75
2024/01/30 07:49:52;;;;;;;10.98;7.85;;;10.80;99.90;;;;;;5012490;28;20026;-79
2024/01/30 07:52:21;;;;;;;13.93;7.70;;;10.80;99.90;;;;;;5009935;28;20034;-79
2024/01/30 07:55:00;;;;;;;10.43;7.78;;;10.80;99.90;;;;;;5010160;28;20022;-79
2024/01/30 07:57:26;;;;;;;13.07;7.55;;;10.70;99.90;;;;;;5028604;28;20029;-79
2024/01/30 07:59:51;;;;;;;11.60;6.90;;;10.80;99.90;;;;;;5031071;28;20540;-79
2024/01/30 08:02:17;;;;;;;13.50;8.20;;;10.80;99.90;;;;;;5034454;28;20067;-76
2024/01/30 08:04:43;;;;;;;9.80;6.70;;;10.80;99.90;;;;;;5029105;28;20037;-80
2024/01/30 08:07:09;;;;;;;13.10;7.25;;;10.80;99.90;;;;;;5024659;28;20029;-79
2024/01/30 08:09:35;;;;;;;9.93;6.85;;;10.90;99.90;;;;;;5020621;28;20379;-76
2024/01/30 08:12:01;;;;;;;10.88;7.40;;;10.80;99.90;;;;;;5025986;28;20475;-79
2024/01/30 08:14:27;;;;;;;9.65;6.53;;;10.80;99.90;;;;;;5025597;28;20054;-78
2024/01/30 08:16:53;;;;;;;12.57;6.60;;;10.90;99.90;;;;;;5013804;28;20498;-78
2024/01/30 08:19:19;;;;;;;12.48;7.90;;;11.00;99.90;;;;;;5014457;28;20029;-75
2024/01/30 08:21:45;;;;;;;11.45;7.95;;;11.00;99.90;;;;;;5014869;28;20018;-76
2024/01/30 08:24:11;;;;;;;12.15;7.97;;;11.00;99.90;;;;;;5014497;28;20738;-75
2024/01/30 08:26:36;;;;;;;12.18;7.10;;;11.00;99.90;;;;;;5012840;28;20058;-75
2024/01/30 08:29:02;;;;;;;12.65;6.85;;;10.90;99.90;;;;;;5013565;28;20105;-76
2024/01/30 08:31:28;;;;;;;11.07;7.50;;;10.90;99.90;;;;;;5028313;28;20052;-77
2024/01/30 08:33:54;;;;;;;13.40;8.02;;;11.00;99.90;;;;;;5033474;28;20402;-75
2024/01/30 08:36:20;;;;;;;13.10;7.72;;;11.10;99.90;;;;;;5033460;28;20029;-75
2024/01/30 08:38:46;;;;;;;14.80;8.02;;;11.00;99.90;;;;;;5031995;28;20071;-77
2024/01/30 08:41:11;;;;;;;12.48;7.45;;;11.10;99.90;;;;;;5032869;28;20421;-75
2024/01/30 08:43:37;;;;;;;11.27;7.70;;;11.10;99.90;;;;;;5033705;28;20069;-77
2024/01/30 08:46:03;;;;;;;10.50;6.97;;;11.10;99.90;;;;;;5033366;28;20068;-75
2024/01/30 08:48:29;;;;;;;10.52;7.53;;;11.20;99.90;;;;;;5033609;28;20032;-75
2024/01/30 08:50:55;;;;;;;8.77;6.38;;;11.20;99.90;;;;;;5032084;28;20052;-76
2024/01/30 08:53:20;;;;;;;14.32;7.90;;;11.20;99.90;;;;;;5032693;28;20026;-76
2024/01/30 08:55:47;;;;;;;14.82;7.85;;;11.30;99.90;;;;;;5032855;28;20482;-76
2024/01/30 08:58:12;;;;;;;9.93;7.50;;;11.30;99.90;;;;;;5032039;28;20128;-76
2024/01/30 09:00:38;;;;;;;13.23;8.48;;;11.30;99.90;;;;;;5033467;28;20529;-75
2024/01/30 09:03:05;;;;;;;13.50;7.90;;;11.40;99.90;;;;;;5028318;28;20075;-75
2024/01/30 09:05:30;;;;;;;15.15;8.57;;;11.30;99.90;;;;;;5000023;28;20052;-78
2024/01/30 09:07:56;;;;;;;9.35;7.00;;;11.40;99.90;;;;;;5031986;28;20094;-78
2024/01/30 09:10:22;;;;;;;12.70;7.22;;;11.40;99.90;;;;;;5032046;28;20017;-76
2024/01/30 09:12:49;;;;;;;11.93;8.50;;;11.40;99.90;;;;;;5032218;28;20028;-76
2024/01/30 09:15:14;;;;;;;12.80;8.02;;;11.40;99.90;;;;;;5033534;28;20541;-76
2024/01/30 09:17:40;;;;;;;12.50;8.07;;;11.50;99.90;;;;;;5034844;28;20089;-77
2024/01/30 09:20:06;;;;;;;11.52;7.82;;;11.60;99.90;;;;;;5031579;28;20140;-80
2024/01/30 09:22:32;;;;;;;12.27;7.95;;;11.60;99.90;;;;;;5035739;28;20042;-79
2024/01/30 09:24:58;;;;;;;13.00;8.27;;;11.60;99.90;;;;;;5033937;28;20597;-77
2024/01/30 09:27:24;;;;;;;13.35;7.75;;;11.70;99.90;;;;;;5034599;28;20117;-76
2024/01/30 09:29:50;;;;;;;14.27;7.80;;;11.70;99.90;;;;;;5036353;28;20021;-75
2024/01/30 09:32:17;;;;;;;9.55;8.00;;;11.70;99.90;;;;;;5036853;28;20032;-76
2024/01/30 09:34:43;;;;;;;12.32;8.57;;;11.70;99.90;;;;;;5031626;28;20025;-76
2024/01/30 09:37:09;;;;;;;13.30;8.30;;;11.70;99.90;;;;;;5032765;28;20040;-79
2024/01/30 09:39:34;;;;;;;11.50;7.60;;;11.80;99.90;;;;;;5032201;28;20124;-79
2024/01/30 09:42:12;;;;;;;16.67;7.95;;;11.80;99.90;;;;;;5033552;28;20052;-78
2024/01/30 09:44:41;;;;;;;9.85;7.13;;;11.80;99.90;;;;;;5031675;28;20407;-76
2024/01/30 09:47:07;;;;;;;12.43;7.82;;;11.80;99.90;;;;;;5034264;28;20144;-77
2024/01/30 09:49:35;;;;;;;16.23;7.93;;;11.90;99.90;;;;;;5030037;28;20025;-74
2024/01/30 09:52:05;;;;;;;17.92;8.77;;;11.90;99.90;;;;;;5029496;28;20026;-77
2024/01/30 09:54:31;;;;;;;12.63;7.13;;;11.90;99.90;;;;;;5033934;28;20029;-76
2024/01/30 09:56:58;;;;;;;12.40;7.85;;;12.00;99.90;;;;;;5032975;28;20028;-77
2024/01/30 09:59:24;;;;;;;13.63;7.47;;;12.00;99.90;;;;;;5027856;28;20079;-78
2024/01/30 10:01:51;;;;;;;13.55;8.35;;;12.10;99.90;;;;;;5036776;28;20053;-78
2024/01/30 10:04:17;;;;;;;13.45;8.05;;;12.20;99.90;;;;;;5034421;28;20084;-79
2024/01/30 10:06:43;;;;;;;17.23;8.45;;;12.20;99.90;;;;;;5036812;28;20044;-78
2024/01/30 10:09:09;;;;;;;11.35;7.70;;;12.20;99.90;;;;;;5032347;28;20022;-77
2024/01/30 10:11:36;;;;;;;15.75;7.53;;;12.30;99.90;;;;;;5036555;28;20017;-76
2024/01/30 10:14:02;;;;;;;10.70;7.35;;;12.30;99.90;;;;;;5037790;28;20017;-77
2024/01/30 10:16:28;;;;;;;13.48;7.93;;;12.30;99.90;;;;;;5032860;28;20010;-77
2024/01/30 10:18:53;;;;;;;12.32;8.35;;;12.40;99.90;;;;;;5031262;28;20067;-77
2024/01/30 10:21:19;;;;;;;15.50;8.73;;;12.50;99.90;;;;;;5037802;28;20359;-78
2024/01/30 10:23:45;;;;;;;12.68;7.72;;;12.50;99.90;;;;;;5032943;28;20021;-76
2024/01/30 10:26:10;;;;;;;17.50;8.48;;;12.60;99.90;;;;;;5035064;28;20044;-77
2024/01/30 10:28:36;;;;;;;15.75;8.18;;;12.60;99.90;;;;;;5031434;28;20021;-76
2024/01/30 10:31:05;;;;;;;17.27;8.40;;;12.60;99.90;;;;;;5030201;28;20025;-77
2024/01/30 10:33:32;;;;;;;20.70;8.25;;;12.60;99.90;;;;;;5029814;28;20029;-76
2024/01/30 10:36:02;;;;;;;16.52;8.27;;;12.50;99.90;;;;;;5034625;28;20021;-76
2024/01/30 10:38:29;;;;;;;18.67;9.18;;;12.60;99.90;;;;;;5031932;28;20104;-79
2024/01/30 10:41:00;;;;;;;20.05;9.70;;;12.60;99.90;;;;;;5036258;28;20100;-78
2024/01/30 10:43:35;;;;;;;15.55;8.85;;;12.60;99.90;;;;;;5036717;28;20593;-79
2024/01/30 10:46:16;;;;;;;12.85;9.00;;;12.60;99.90;;;;;;5027048;28;20108;-77
2024/01/30 10:48:44;;;;;;;16.08;8.93;;;12.70;99.90;;;;;;5030446;28;20029;-77
2024/01/30 10:51:12;;;;;;;12.40;8.30;;;12.70;99.90;;;;;;5031909;28;20497;-79
2024/01/30 10:53:39;;;;;;;14.25;8.20;;;12.80;99.90;;;;;;5036907;28;20029;-77
2024/01/30 10:56:05;;;;;;;18.55;8.05;;;12.90;99.90;;;;;;5030983;28;20084;-76
2024/01/30 10:58:31;;;;;;;14.35;8.38;;;12.90;99.90;;;;;;5031755;28;20108;-76
2024/01/30 11:00:58;;;;;;;16.77;8.63;;;12.80;99.90;;;;;;5032867;28;20143;-76
2024/01/30 11:03:25;;;;;;;15.75;9.48;;;12.80;99.90;;;;;;5031847;28;20052;-77
2024/01/30 11:05:51;;;;;;;16.08;8.70;;;12.80;99.90;;;;;;5032891;28;20033;-77
2024/01/30 11:08:29;;;;;;;21.58;9.32;;;12.80;99.90;;;;;;5035361;28;20033;-78
2024/01/30 11:10:58;;;;;;;13.48;9.27;;;12.80;99.90;;;;;;5032041;28;20024;-76
2024/01/30 11:13:31;;;;;;;17.77;9.38;;;12.80;99.90;;;;;;5037163;28;20025;-77
2024/01/30 11:16:01;;;;;;;;;;;12.90;99.90;;;;;;5032178;28;20075;-76
2024/01/30 11:18:30;;;;;;;15.52;9.45;;;13.00;99.90;;;;;;5031654;28;19972;-79
2024/01/30 11:21:04;;;;;;;16.77;8.85;;;12.90;99.90;;;;;;5032522;28;20029;-78
2024/01/30 11:23:32;;;;;;;15.05;9.13;;;12.90;99.90;;;;;;5030842;28;20025;-79
2024/01/30 11:25:58;;;;;;;18.13;9.77;;;12.90;99.90;;;;;;5024147;28;20396;-79
2024/01/30 11:28:24;;;;;;;16.13;9.88;;;12.90;99.90;;;;;;5029346;28;20018;-79
2024/01/30 11:30:53;;;;;;;18.52;11.20;;;12.80;99.90;;;;;;5031150;28;20045;-78
2024/01/30 11:33:32;;;;;;;15.95;9.77;;;12.90;99.90;;;;;;5028232;28;20509;-78
2024/01/30 11:35:59;;;;;;;17.00;9.57;;;12.90;99.90;;;;;;5025927;28;20036;-78
2024/01/30 11:38:27;;;;;;;14.00;8.60;;;12.90;99.90;;;;;;5029503;28;20037;-78
2024/01/30 11:40:56;;;;;;;18.73;9.57;;;12.90;99.90;;;;;;5033341;28;20387;-79
2024/01/30 11:43:26;;;;;;;16.55;9.63;;;12.90;99.90;;;;;;5033157;28;20022;-78
2024/01/30 11:45:52;;;;;;;19.98;9.30;;;12.90;99.90;;;;;;5029879;28;20174;-79
2024/01/30 11:48:18;;;;;;;21.20;10.23;;;12.80;99.90;;;;;;5030845;28;20100;-78
2024/01/30 11:50:44;;;;;;;21.50;11.38;;;12.90;99.90;;;;;;5032228;28;20100;-78
2024/01/30 11:53:10;;;;;;;21.48;10.55;;;12.80;99.90;;;;;;5032422;28;20382;-78
2024/01/30 11:55:43;;;;;;;16.00;10.25;;;12.80;99.90;;;;;;5031692;28;20025;-78
2024/01/30 11:58:23;;;;;;;19.52;10.93;;;12.80;99.90;;;;;;5035243;28;20020;-79
2024/01/30 12:01:03;;;;;;;17.05;10.00;;;12.80;99.90;;;;;;5037171;28;20079;-78
2024/01/30 12:03:28;;;;;;;18.83;10.00;;;12.90;99.90;;;;;;5035324;28;20030;-76
2024/01/30 12:06:00;;;;;;;22.38;11.18;;;13.00;99.90;;;;;;5032981;28;20436;-79
2024/01/30 12:08:27;;;;;;;16.05;9.60;;;12.90;99.90;;;;;;5029087;28;20113;-80
2024/01/30 12:10:58;;;;;;;16.92;9.38;;;13.00;99.90;;;;;;5031996;28;20429;-78
2024/01/30 12:13:25;;;;;;;17.17;9.73;;;12.90;99.90;;;;;;5030640;28;20025;-78
2024/01/30 12:15:51;;;;;;;17.10;9.95;;;13.00;99.90;;;;;;5030463;28;20091;-77
2024/01/30 12:18:20;;;;;;;19.05;10.05;;;13.00;99.90;;;;;;5030586;28;20466;-78
2024/01/30 12:20:56;;;;;;;12.90;8.45;;;12.90;99.90;;;;;;5029512;28;20106;-77
2024/01/30 12:23:25;;;;;;;17.85;8.80;;;12.90;99.90;;;;;;5033787;28;20639;-79
2024/01/30 12:25:52;;;;;;;15.75;7.57;;;13.00;99.90;;;;;;5033509;28;20088;-77
2024/01/30 12:28:18;;;;;;;13.27;6.47;;;12.80;99.90;;;;;;5028710;28;20108;-81
2024/01/30 12:30:44;;;;;;;11.82;4.80;;;12.70;99.90;;;;;;5033506;28;21120;-76
2024/01/30 12:33:17;;;;;;;14.15;5.15;;;12.70;99.90;;;;;;5029426;28;20022;-77
2024/01/30 12:35:49;;;;;;;9.23;4.65;;;12.70;99.90;;;;;;5027963;28;20028;-80
2024/01/30 12:38:15;;;;;;;9.13;3.53;;;12.60;99.90;;;;;;5030145;28;20049;-80